createdAt,value
2022-11-16T00:02:19.874Z,13.05
2022-11-16T00:04:46.486Z,12.83
2022-11-16T00:07:13.295Z,12.72
2022-11-16T00:09:39.869Z,12.61
2022-11-16T00:12:09.149Z,12.61
2022-11-16T00:14:36.694Z,12.51
2022-11-16T00:17:04.154Z,12.72
2022-11-16T00:19:31.605Z,13.12
2022-11-16T00:21:58.366Z,12.86
2022-11-16T00:24:25.017Z,12.39
2022-11-16T00:26:54.447Z,12.03
2022-11-16T00:29:25.888Z,11.79
2022-11-16T00:31:53.320Z,11.58
2022-11-16T00:34:21.981Z,11.47
2022-11-16T00:36:49.044Z,11.42
2022-11-16T00:39:16.974Z,11.32
2022-11-16T00:41:46.248Z,11.22
2022-11-16T00:44:13.338Z,12.43
2022-11-16T00:46:40.395Z,13.65
2022-11-16T00:49:07.857Z,13.63
2022-11-16T00:51:35.246Z,13.32
2022-11-16T00:54:03.396Z,13.08
2022-11-16T00:56:31.263Z,12.77
2022-11-16T00:58:58.054Z,12.51
2022-11-16T01:01:25.076Z,12.28
2022-11-16T01:03:51.860Z,12.52
2022-11-16T01:06:19.875Z,13.89
2022-11-16T01:08:47.287Z,14.14
2022-11-16T01:11:34.591Z,13.81
2022-11-16T01:14:03.890Z,12.62
2022-11-16T01:16:31.243Z,11.64
2022-11-16T01:18:58.447Z,10.88
2022-11-16T01:21:25.679Z,10.84
2022-11-16T01:23:52.259Z,12.63
2022-11-16T01:26:19.054Z,14.17
2022-11-16T01:28:45.960Z,14.53
2022-11-16T01:31:13.255Z,14.08
2022-11-16T01:33:40.444Z,12.86
2022-11-16T01:36:16.985Z,11.77
2022-11-16T01:38:45.834Z,10.95
2022-11-16T01:41:22.638Z,10.83
2022-11-16T01:43:58.853Z,12.63
2022-11-16T01:46:31.064Z,13.96
2022-11-16T01:49:04.866Z,13.80
2022-11-16T01:51:33.319Z,12.54
2022-11-16T01:54:03.976Z,11.48
2022-11-16T01:56:32.848Z,11.18
2022-11-16T01:59:20.916Z,12.97
2022-11-16T02:01:49.064Z,14.23
2022-11-16T02:04:17.353Z,14.52
2022-11-16T02:07:25.842Z,13.25
2022-11-16T02:10:18.496Z,11.78
2022-11-16T02:13:01.787Z,10.81
2022-11-16T02:15:41.787Z,10.90
2022-11-16T02:18:33.446Z,12.46
2022-11-16T02:21:11.770Z,12.24
2022-11-16T02:24:21.428Z,11.69
2022-11-16T02:27:14.928Z,11.42
2022-11-16T02:29:49.801Z,11.17
2022-11-16T02:32:24.757Z,10.99
2022-11-16T02:35:01.070Z,10.89
2022-11-16T02:37:33.904Z,10.82
2022-11-16T02:40:05.283Z,11.72
2022-11-16T02:42:48.607Z,13.12
2022-11-16T02:45:21.761Z,13.99
2022-11-16T02:47:51.181Z,14.16
2022-11-16T02:50:22.739Z,12.96
2022-11-16T02:52:49.333Z,11.74
2022-11-16T02:55:16.117Z,10.84
2022-11-16T02:57:57.167Z,10.18
2022-11-16T03:00:34.098Z,10.14
2022-11-16T03:03:07.307Z,12.17
2022-11-16T03:05:53.075Z,13.63
2022-11-16T03:08:39.448Z,14.06
2022-11-16T03:11:28.039Z,12.55
2022-11-16T03:14:08.157Z,11.18
2022-11-16T03:16:39.205Z,10.26
2022-11-16T03:19:10.331Z,10.04
2022-11-16T03:21:46.983Z,11.95
2022-11-16T03:24:13.905Z,13.55
2022-11-16T03:27:06.331Z,14.05
2022-11-16T03:29:43.639Z,12.60
2022-11-16T03:32:20.690Z,11.34
2022-11-16T03:34:57.267Z,10.45
2022-11-16T03:37:25.796Z,9.79
2022-11-16T03:39:54.153Z,9.79
2022-11-16T03:42:25.482Z,11.67
2022-11-16T03:44:53.095Z,13.28
2022-11-16T03:47:20.006Z,14.22
2022-11-16T03:49:47.915Z,14.06
2022-11-16T03:52:16.864Z,12.67
2022-11-16T03:54:44.340Z,11.54
2022-11-16T03:57:15.223Z,10.73
2022-11-16T03:59:44.705Z,10.11
2022-11-16T04:02:11.642Z,10.23
2022-11-16T04:04:57.321Z,12.30
2022-11-16T04:07:42.995Z,13.85
2022-11-16T04:10:29.516Z,14.69
2022-11-16T04:13:16.183Z,14.11
2022-11-16T04:16:01.764Z,12.58
2022-11-16T04:18:47.107Z,11.50
2022-11-16T04:21:39.485Z,10.71
2022-11-16T04:24:16.490Z,10.08
2022-11-16T04:27:05.426Z,10.42
2022-11-16T04:29:33.114Z,13.08
2022-11-16T04:32:18.767Z,14.50
2022-11-16T04:35:04.518Z,14.41
2022-11-16T04:37:49.942Z,12.90
2022-11-16T04:40:25.732Z,11.69
2022-11-16T04:42:57.805Z,10.93
2022-11-16T04:45:44.340Z,10.34
2022-11-16T04:48:13.029Z,10.53
2022-11-16T04:50:40.881Z,12.66
2022-11-16T04:53:07.872Z,14.31
2022-11-16T04:55:39.985Z,14.81
2022-11-16T04:58:07.405Z,13.52
2022-11-16T05:00:33.998Z,12.26
2022-11-16T05:03:01.689Z,11.33
2022-11-16T05:05:28.937Z,10.63
2022-11-16T05:07:57.524Z,10.06
2022-11-16T05:10:27.396Z,10.22
2022-11-16T05:12:54.227Z,12.48
2022-11-16T05:15:20.990Z,14.23
2022-11-16T05:17:48.256Z,14.68
2022-11-16T05:20:36.527Z,13.40
2022-11-16T05:23:04.363Z,11.98
2022-11-16T05:25:36.612Z,11.03
2022-11-16T05:28:06.443Z,10.29
2022-11-16T05:30:34.974Z,10.35
2022-11-16T05:33:02.321Z,11.81
2022-11-16T05:35:30.553Z,12.97
2022-11-16T05:37:57.156Z,13.43
2022-11-16T05:40:23.747Z,13.26
2022-11-16T05:42:57.267Z,12.22
2022-11-16T05:45:24.448Z,11.20
2022-11-16T05:47:51.422Z,10.47
2022-11-16T05:50:18.284Z,10.18
2022-11-16T05:52:46.648Z,10.67
2022-11-16T05:55:13.290Z,10.64
2022-11-16T05:57:43.322Z,10.41
2022-11-16T06:00:11.197Z,10.74
2022-11-16T06:02:43.665Z,11.30
2022-11-16T06:08:21.486Z,11.40
2022-11-16T06:10:49.796Z,11.85
2022-11-16T06:13:16.494Z,12.15
2022-11-16T06:15:49.622Z,12.32
2022-11-16T06:18:17.533Z,13.25
2022-11-16T06:20:44.220Z,14.72
2022-11-16T06:23:10.812Z,15.05
2022-11-16T06:25:38.823Z,13.74
2022-11-16T06:28:08.170Z,12.45
2022-11-16T06:30:35.567Z,11.47
2022-11-16T06:33:02.578Z,10.75
2022-11-16T06:35:29.214Z,10.80
2022-11-16T06:37:57.452Z,12.86
2022-11-16T06:40:25.255Z,14.36
2022-11-16T06:42:51.992Z,14.54
2022-11-16T06:45:18.593Z,13.25
2022-11-16T06:47:49.428Z,12.07
2022-11-16T06:50:20.110Z,11.21
2022-11-16T06:52:48.291Z,11.07
2022-11-16T06:55:16.092Z,12.25
2022-11-16T06:57:42.852Z,12.41
2022-11-16T07:00:10.586Z,13.55
2022-11-16T07:02:38.660Z,14.74
2022-11-16T07:05:06.774Z,14.66
2022-11-16T07:07:33.665Z,13.30
2022-11-16T07:10:00.930Z,12.12
2022-11-16T07:12:27.580Z,11.28
2022-11-16T07:14:55.776Z,10.66
2022-11-16T07:17:23.836Z,11.63
2022-11-16T07:19:52.782Z,13.38
2022-11-16T07:22:23.181Z,14.16
2022-11-16T07:24:50.252Z,14.07
2022-11-16T07:27:17.594Z,12.77
2022-11-16T07:29:45.574Z,11.61
2022-11-16T07:32:23.821Z,10.67
2022-11-16T07:35:09.751Z,10.77
2022-11-16T07:37:37.681Z,12.70
2022-11-16T07:40:04.675Z,14.16
2022-11-16T07:42:31.227Z,14.86
2022-11-16T07:45:21.174Z,13.77
2022-11-16T07:47:53.687Z,12.29
2022-11-16T07:50:46.653Z,11.03
2022-11-16T07:53:14.411Z,11.09
2022-11-16T07:55:40.868Z,13.07
2022-11-16T07:58:08.742Z,14.17
2022-11-16T08:00:36.444Z,13.27
2022-11-16T08:03:08.045Z,11.90
2022-11-16T08:05:35.488Z,10.90
2022-11-16T08:08:01.962Z,10.13
2022-11-16T08:10:30.679Z,9.67
2022-11-16T08:12:58.016Z,9.47
2022-11-16T08:15:25.125Z,9.19
2022-11-16T08:17:51.921Z,9.63
2022-11-16T08:20:18.771Z,10.79
2022-11-16T08:22:46.966Z,11.55
2022-11-16T08:25:14.185Z,12.02
2022-11-16T08:27:42.560Z,12.68
2022-11-16T08:30:09.675Z,13.80
2022-11-16T08:32:36.355Z,14.43
2022-11-16T08:35:04.016Z,14.13
2022-11-16T08:40:36.622Z,11.40
2022-11-16T08:43:03.322Z,10.53
2022-11-16T08:45:30.007Z,10.49
2022-11-16T08:48:03.477Z,12.46
2022-11-16T08:50:44.248Z,13.77
2022-11-16T08:53:19.109Z,14.17
2022-11-16T08:55:45.704Z,13.95
2022-11-16T08:58:12.315Z,12.72
2022-11-16T09:00:39.512Z,11.50
2022-11-16T09:03:06.101Z,10.61
2022-11-16T09:05:32.622Z,10.66
2022-11-16T09:07:59.381Z,12.71
2022-11-16T09:10:25.975Z,14.34
2022-11-16T09:12:52.471Z,15.14
2022-11-16T09:15:20.306Z,14.43
2022-11-16T09:17:47.190Z,12.94
2022-11-16T09:20:14.188Z,11.74
2022-11-16T09:22:41.390Z,10.84
2022-11-16T09:25:09.369Z,10.75
2022-11-16T09:27:37.239Z,12.54
2022-11-16T09:30:04.725Z,14.13
2022-11-16T09:32:31.307Z,15.19
2022-11-16T09:34:57.777Z,14.52
2022-11-16T09:37:24.552Z,12.98
2022-11-16T09:39:51.663Z,11.78
2022-11-16T09:42:27.162Z,10.93
2022-11-16T09:45:24.152Z,10.79
2022-11-16T09:47:59.031Z,12.84
2022-11-16T09:50:51.337Z,13.79
2022-11-16T09:53:22.223Z,15.03
2022-11-16T09:55:53.103Z,15.15
2022-11-16T09:58:28.299Z,13.58
2022-11-16T10:01:16.124Z,12.20
2022-11-16T10:03:49.907Z,11.16
2022-11-16T10:06:23.318Z,10.75
2022-11-16T10:08:53.164Z,12.43
2022-11-16T10:11:36.277Z,13.81
2022-11-16T10:14:23.345Z,14.56
2022-11-16T10:17:06.871Z,14.33
2022-11-16T10:19:46.267Z,12.83
2022-11-16T10:22:21.863Z,11.59
2022-11-16T10:24:57.469Z,10.70
2022-11-16T10:27:47.909Z,10.75
2022-11-16T10:30:16.609Z,12.97
2022-11-16T10:32:48.950Z,14.25
2022-11-16T10:35:21.363Z,14.62
2022-11-16T10:37:52.709Z,13.17
2022-11-16T10:40:35.478Z,11.84
2022-11-16T10:43:18.520Z,10.77
2022-11-16T10:46:00.561Z,10.60
2022-11-16T10:48:40.691Z,12.18
2022-11-16T10:51:09.073Z,13.30
2022-11-16T10:53:39.260Z,14.34
2022-11-16T10:56:36.757Z,14.51
2022-11-16T10:59:06.249Z,12.92
2022-11-16T11:01:35.413Z,11.73
2022-11-16T11:04:24.063Z,10.87
2022-11-16T11:06:56.079Z,10.09
2022-11-16T11:09:28.998Z,10.03
2022-11-16T11:12:16.804Z,11.55
2022-11-16T11:15:11.555Z,12.84
2022-11-16T11:17:49.923Z,13.80
2022-11-16T11:20:16.600Z,14.38
2022-11-16T11:22:47.617Z,13.31
2022-11-16T11:25:33.243Z,12.01
2022-11-16T11:28:18.553Z,10.96
2022-11-16T11:31:00.105Z,10.69
2022-11-16T11:33:31.736Z,11.90
2022-11-16T11:36:18.249Z,12.62
2022-11-16T11:39:05.852Z,13.04
2022-11-16T11:41:44.466Z,13.39
2022-11-16T11:44:19.178Z,13.46
2022-11-16T11:47:55.609Z,13.52
2022-11-16T11:50:12.964Z,12.92
2022-11-16T11:52:46.958Z,11.75
2022-11-16T11:55:17.258Z,10.85
2022-11-16T11:57:47.152Z,10.65
2022-11-16T12:00:14.947Z,12.48
2022-11-16T12:02:57.002Z,13.83
2022-11-16T12:05:47.257Z,13.58
2022-11-16T12:08:43.499Z,12.16
2022-11-16T12:11:35.417Z,10.99
2022-11-16T12:14:05.072Z,10.16
2022-11-16T12:16:42.485Z,9.96
2022-11-16T12:19:21.014Z,10.98
2022-11-16T12:21:57.453Z,11.97
2022-11-16T12:24:41.971Z,12.22
2022-11-16T12:27:26.934Z,12.38
2022-11-16T12:30:07.778Z,12.43
2022-11-16T12:32:48.981Z,12.45
2022-11-16T12:35:42.238Z,12.42
2022-11-16T12:38:30.495Z,12.47
2022-11-16T12:41:31.549Z,12.45
2022-11-16T12:44:08.078Z,12.64
2022-11-16T12:46:52.179Z,12.63
2022-11-16T12:49:44.739Z,11.80
2022-11-16T12:52:30.257Z,10.72
2022-11-16T12:55:38.797Z,10.03
2022-11-16T12:58:33.784Z,9.54
2022-11-16T13:01:17.044Z,9.33
2022-11-16T13:03:54.938Z,9.23
2022-11-16T13:06:32.440Z,8.76
2022-11-16T13:09:16.239Z,8.32
2022-11-16T13:11:51.595Z,8.16
2022-11-16T13:14:33.578Z,8.57
2022-11-16T13:17:02.795Z,8.80
2022-11-16T13:19:29.924Z,9.02
2022-11-16T13:22:17.251Z,9.56
2022-11-16T13:24:58.147Z,9.74
2022-11-16T13:27:34.098Z,10.19
2022-11-16T13:30:21.813Z,10.14
2022-11-16T13:32:57.573Z,10.57
2022-11-16T13:35:24.921Z,12.13
2022-11-16T13:37:54.155Z,12.97
2022-11-16T13:40:25.559Z,13.56
2022-11-16T13:43:06.259Z,12.94
2022-11-16T13:45:38.194Z,11.30
2022-11-16T13:48:16.188Z,10.13
2022-11-16T13:50:58.203Z,9.21
2022-11-16T13:56:25.541Z,11.62
2022-11-16T13:58:57.698Z,13.13
2022-11-16T14:01:26.009Z,13.44
2022-11-16T14:04:31.490Z,12.02
2022-11-16T14:06:59.447Z,10.30
2022-11-16T14:09:47.293Z,9.29
2022-11-16T14:12:52.277Z,8.67
2022-11-16T14:15:22.016Z,10.88
2022-11-16T14:17:54.095Z,12.26
2022-11-16T14:20:55.994Z,12.38
2022-11-16T14:23:35.161Z,10.67
2022-11-16T14:26:01.907Z,9.36
2022-11-16T14:28:45.690Z,8.48
2022-11-16T14:31:12.049Z,8.63
2022-11-16T14:33:38.729Z,9.52
2022-11-16T14:36:07.927Z,10.20
2022-11-16T14:38:43.060Z,10.24
2022-11-16T14:41:20.483Z,11.41
2022-11-16T14:43:52.136Z,12.92
2022-11-16T14:46:27.315Z,12.02
2022-11-16T14:48:56.091Z,10.43
2022-11-16T14:51:29.546Z,9.24
2022-11-16T14:54:01.297Z,8.29
2022-11-16T14:56:27.759Z,8.37
2022-11-16T14:58:56.714Z,10.63
2022-11-16T15:01:27.684Z,11.82
2022-11-16T15:04:03.236Z,11.73
2022-11-16T15:06:42.979Z,10.18
2022-11-16T15:09:26.409Z,8.80
2022-11-16T15:12:12.593Z,8.79
2022-11-16T15:15:00.309Z,11.57
2022-11-16T15:17:31.801Z,12.19
2022-11-16T15:20:24.368Z,10.72
2022-11-16T15:22:53.267Z,9.12
2022-11-16T15:25:24.364Z,8.16
2022-11-16T15:27:51.575Z,9.54
2022-11-16T15:30:20.527Z,11.95
2022-11-16T15:32:49.923Z,12.42
2022-11-16T15:35:23.233Z,10.84
2022-11-16T15:38:16.208Z,9.36
2022-11-16T15:40:58.207Z,8.33
2022-11-16T15:43:29.848Z,10.49
2022-11-16T15:45:57.931Z,12.48
2022-11-16T15:48:27.074Z,12.59
2022-11-16T15:51:14.531Z,11.00
2022-11-16T15:53:44.683Z,9.43
2022-11-16T15:56:39.589Z,8.43
2022-11-16T15:59:12.776Z,7.59
2022-11-16T16:01:43.819Z,7.07
2022-11-16T16:04:16.048Z,8.69
2022-11-16T16:06:43.731Z,11.34
2022-11-16T16:09:38.240Z,12.23
2022-11-16T16:12:17.149Z,10.60
2022-11-16T16:14:44.507Z,9.14
2022-11-16T16:17:22.302Z,8.18
2022-11-16T16:19:58.499Z,7.41
2022-11-16T16:22:36.536Z,7.69
2022-11-16T16:25:06.966Z,10.24
2022-11-16T16:27:39.292Z,11.59
2022-11-16T16:30:06.891Z,11.70
2022-11-16T16:32:36.502Z,10.35
2022-11-16T16:35:08.046Z,9.12
2022-11-16T16:37:38.064Z,8.11
2022-11-16T16:40:05.449Z,7.79
2022-11-16T16:42:32.048Z,9.42
2022-11-16T16:44:59.847Z,11.41
2022-11-16T16:47:26.414Z,12.33
2022-11-16T16:49:53.173Z,10.98
2022-11-16T16:52:19.794Z,9.57
2022-11-16T16:54:46.472Z,8.50
2022-11-16T16:57:15.236Z,8.11
2022-11-16T16:59:44.629Z,9.91
2022-11-16T17:02:12.163Z,11.54
2022-11-16T17:04:40.121Z,11.84
2022-11-16T17:07:07.058Z,10.55
2022-11-16T17:09:33.878Z,9.33
2022-11-16T17:12:00.794Z,8.34
2022-11-16T17:14:27.503Z,7.94
2022-11-16T17:16:54.704Z,9.15
2022-11-16T17:19:21.374Z,10.35
2022-11-16T17:21:48.316Z,10.68
2022-11-16T17:24:14.780Z,10.92
2022-11-16T17:26:41.527Z,11.27
2022-11-16T17:29:08.306Z,10.75
2022-11-16T17:31:35.681Z,9.52
2022-11-16T17:34:02.462Z,8.53
2022-11-16T17:36:29.132Z,7.77
2022-11-16T17:38:56.038Z,7.69
2022-11-16T17:41:22.647Z,9.45
2022-11-16T17:43:52.413Z,10.53
2022-11-16T17:46:21.410Z,10.83
2022-11-16T17:48:48.355Z,10.92
2022-11-16T17:51:20.607Z,10.50
2022-11-16T17:53:49.157Z,9.35
2022-11-16T17:56:21.902Z,8.34
2022-11-16T17:58:52.344Z,7.66
2022-11-16T18:01:19.112Z,9.08
2022-11-16T18:03:45.863Z,10.91
2022-11-16T18:06:20.646Z,11.42
2022-11-16T18:08:48.269Z,10.23
2022-11-16T18:11:23.676Z,9.03
2022-11-16T18:14:00.685Z,8.03
2022-11-16T18:16:30.973Z,7.37
2022-11-16T18:19:05.441Z,7.38
2022-11-16T18:21:39.037Z,9.50
2022-11-16T18:24:05.921Z,11.31
2022-11-16T18:26:32.842Z,12.04
2022-11-16T18:28:59.482Z,10.86
2022-11-16T18:31:26.219Z,9.55
2022-11-16T18:33:53.010Z,8.51
2022-11-16T18:36:21.109Z,7.76
2022-11-16T18:38:48.297Z,7.40
2022-11-16T18:41:19.302Z,9.20
2022-11-16T18:43:54.178Z,11.23
2022-11-16T18:46:23.561Z,11.93
2022-11-16T18:48:50.323Z,10.67
2022-11-16T18:51:17.930Z,9.41
2022-11-16T18:53:45.127Z,8.45
2022-11-16T18:56:11.865Z,8.57
2022-11-16T18:58:54.872Z,11.09
2022-11-16T19:01:24.183Z,12.37
2022-11-16T19:03:52.594Z,11.14
2022-11-16T19:06:19.508Z,9.69
2022-11-16T19:08:53.740Z,8.63
2022-11-16T19:11:23.306Z,7.83
2022-11-16T19:14:00.113Z,7.68
2022-11-16T19:16:26.983Z,9.79
2022-11-16T19:18:53.655Z,11.30
2022-11-16T19:21:23.837Z,11.84
2022-11-16T19:23:55.031Z,10.58
2022-11-16T19:26:24.970Z,9.28
2022-11-16T19:28:52.438Z,8.28
2022-11-16T19:31:20.897Z,7.58
2022-11-16T19:33:48.395Z,8.02
2022-11-16T19:36:17.411Z,10.43
2022-11-16T19:38:54.107Z,11.79
2022-11-16T19:41:22.812Z,12.05
2022-11-16T19:43:52.019Z,10.75
2022-11-16T19:46:20.951Z,9.46
2022-11-16T19:48:48.790Z,8.47
2022-11-16T19:51:18.404Z,9.61
2022-11-16T19:53:45.196Z,11.45
2022-11-16T19:56:14.661Z,11.96
2022-11-16T19:58:42.468Z,10.63
2022-11-16T20:01:27.016Z,9.29
2022-11-16T20:03:56.387Z,8.16
2022-11-16T20:06:28.654Z,7.43
2022-11-16T20:09:01.603Z,7.60
2022-11-16T20:11:33.686Z,9.97
2022-11-16T20:14:05.739Z,11.53
2022-11-16T20:16:39.073Z,11.89
2022-11-16T20:19:08.008Z,10.48
2022-11-16T20:21:37.194Z,9.19
2022-11-16T20:24:06.754Z,8.20
2022-11-16T20:26:36.267Z,7.51
2022-11-16T20:29:03.264Z,6.98
2022-11-16T20:31:32.049Z,7.40
2022-11-16T20:34:04.620Z,9.88
2022-11-16T20:36:32.537Z,11.12
2022-11-16T20:39:00.061Z,11.12
2022-11-16T20:41:29.400Z,9.92
2022-11-16T20:44:00.799Z,8.72
2022-11-16T20:46:30.094Z,7.83
2022-11-16T20:48:58.848Z,7.85
2022-11-16T20:51:25.953Z,9.98
2022-11-16T20:53:52.556Z,11.62
2022-11-16T20:56:20.128Z,11.93
2022-11-16T20:58:47.856Z,10.53
2022-11-16T21:01:20.687Z,9.25
2022-11-16T21:03:47.391Z,8.29
2022-11-16T21:06:14.619Z,7.56
2022-11-16T21:08:41.385Z,8.07
2022-11-16T21:11:16.983Z,9.77
2022-11-16T21:14:06.577Z,10.63
2022-11-16T21:16:34.095Z,10.35
2022-11-16T21:19:01.380Z,9.16
2022-11-16T21:21:28.485Z,8.15
2022-11-16T21:23:55.141Z,7.43
2022-11-16T21:26:30.140Z,7.16
2022-11-16T21:28:58.590Z,8.26
2022-11-16T21:31:27.579Z,9.13
2022-11-16T21:33:55.446Z,9.42
2022-11-16T21:36:24.593Z,9.66
2022-11-16T21:38:52.720Z,9.87
2022-11-16T21:41:22.255Z,9.84
2022-11-16T21:43:51.763Z,9.78
2022-11-16T21:46:25.968Z,9.06
2022-11-16T21:48:54.786Z,8.08
2022-11-16T21:51:24.196Z,7.38
2022-11-16T21:53:51.502Z,7.07
2022-11-16T21:56:21.137Z,8.78
2022-11-16T21:58:49.263Z,10.99
2022-11-16T22:01:16.362Z,11.59
2022-11-16T22:03:44.129Z,10.30
2022-11-16T22:06:34.517Z,9.02
2022-11-16T22:09:01.975Z,7.99
2022-11-16T22:11:28.405Z,7.36
2022-11-16T22:13:55.060Z,7.45
2022-11-16T22:16:22.500Z,9.55
2022-11-16T22:18:49.120Z,10.69
2022-11-16T22:21:15.878Z,10.67
2022-11-16T22:23:42.664Z,9.58
2022-11-16T22:26:11.726Z,8.48
2022-11-16T22:28:38.987Z,7.64
2022-11-16T22:31:09.278Z,7.07
2022-11-16T22:33:36.380Z,7.04
2022-11-16T22:36:04.164Z,8.62
2022-11-16T22:38:31.040Z,10.01
2022-11-16T22:40:57.728Z,10.43
2022-11-16T22:43:27.286Z,10.07
2022-11-16T22:46:01.684Z,9.00
2022-11-16T22:48:33.414Z,7.98
2022-11-16T22:51:05.336Z,7.26
2022-11-16T22:53:32.372Z,7.14
2022-11-16T22:56:04.220Z,9.04
2022-11-16T22:58:30.938Z,10.92
2022-11-16T23:00:57.450Z,11.43
2022-11-16T23:03:23.955Z,10.23
2022-11-16T23:05:50.571Z,8.96
2022-11-16T23:08:17.084Z,8.01
2022-11-16T23:11:02.393Z,7.32
2022-11-16T23:13:47.950Z,6.75
2022-11-16T23:16:14.404Z,6.96
2022-11-16T23:18:40.979Z,8.04
2022-11-16T23:21:27.361Z,9.23
2022-11-16T23:24:12.842Z,9.82
2022-11-16T23:26:58.313Z,9.86
2022-11-16T23:29:25.293Z,8.74
2022-11-16T23:31:51.761Z,7.81
2022-11-16T23:34:19.503Z,7.15
2022-11-16T23:36:46.105Z,6.95
2022-11-16T23:39:12.524Z,7.68
2022-11-16T23:41:57.545Z,8.26
2022-11-16T23:44:24.212Z,8.68
2022-11-16T23:46:50.614Z,9.12
2022-11-16T23:49:17.177Z,9.50
2022-11-16T23:51:43.936Z,8.74
2022-11-16T23:54:10.434Z,7.76
2022-11-16T23:56:37.234Z,7.25
2022-11-16T23:59:03.880Z,7.84
